Terminal Aerodrome Forecast
Issued by NWS Corpus Christi, TX

Home | Current Version | Previous Version | Text Only | Print | Product List | Glossary On
Versions: 1 2 3 4 5 6 7 8 9 10 11 12 13 14 15 16 17 18 19
000
FTUS44 KCRP 201100
TAFVCT
TAF
KVCT 201127Z 2012/2112 02004KT 3SM BR SCT070
      TEMPO 2012/2013 2SM BR
     FM201400 05007KT P6SM SCT025 SCT150
     FM201700 08008KT P6SM SCT040 SCT150
     FM210800 03005KT 4SM BR FEW025 SCT250=

USA.gov is the U.S. government's official web portal to all federal, state and local government web resources and services.